Impacts METAR Board
IDs:

KFLL - Ft Lauderdale-Hollyw, FL, US

Updated at: 1300 UTC 21 Feb 2019
Potential Impact None Slight Moderate High
Time 21/01Z 21/02Z 21/03Z 21/04Z 21/05Z 21/06Z 21/07Z 21/08Z 21/09Z 21/10Z 21/11Z 21/12Z 21/13Z
Temp77 77 77 77 77 77 77 77 77 77 77 76 77
Dewpt72 72 73 74 73 73 73 73 72 73 72 72 72
Altim30.09 30.10 30.11 30.11 30.10 30.09 30.08 30.07 30.07 30.07 30.08 30.09 30.11
VIS10 10 10 10 10 10 10 10 10 10 10 10 10
CIG-- -- -- -- -- -- -- 28 37 40 48 -- --
CoverFEWFEWFEWFEWFEWSCTFEWBKNBKNBKNBKNSCTFEW
FltCatVFRVFRVFRVFRVFRVFRVFRMVFRVFRVFRVFRVFRVFR
WX---------------------RA----
WDir120120110120120130120130130140140150140
WSpd10 8 7 8 11 12 13 15 12 12 15 11 14
WGst-- -- -- -- -- -- -- -- -- -- 19 -- --
Raw hourly METARs
KFLL 210053Z 12010KT 10SM FEW025 25/22 A3009 RMK AO2 SLP187 T02500222
KFLL 210153Z 12008KT 10SM FEW022 25/22 A3010 RMK AO2 SLP193 T02500222
KFLL 210253Z 11007KT 10SM FEW021 FEW040 25/23 A3011 RMK AO2 SLP194 T02500228 51010
KFLL 210353Z 12008KT 10SM FEW021 FEW048 25/23 A3011 RMK AO2 SLP194 T02500233
KFLL 210453Z 12011KT 10SM FEW024 FEW038 25/23 A3010 RMK AO2 SLP191 T02500228 402890244
KFLL 210553Z 13012KT 10SM SCT022 SCT032 25/23 A3009 RMK AO2 SLP189 T02500228 10256 20250 58005
KFLL 210653Z 12013KT 10SM FEW031 FEW046 25/23 A3008 RMK AO2 SLP185 T02500228
KFLL 210753Z 13015KT 10SM SCT020 BKN028 BKN041 25/23 A3007 RMK AO2 SLP183 T02500228
KFLL 210900Z 13012KT 10SM FEW022 BKN037 BKN050 25/22 A3007 RMK AO2 T02500222
KFLL 210953Z 14012KT 10SM SCT024 BKN040 BKN050 25/23 A3007 RMK AO2 SLP182 T02500228
KFLL 211053Z 14015G19KT 10SM -RA FEW022 SCT033 BKN048 25/22 A3008 RMK AO2 RAB49 SLP185 P0000 T02500222
KFLL 211153Z 15011KT 10SM SCT022 SCT045 SCT080 24/22 A3009 RMK AO2 RAE01 SLP189 P0000 60000 T02440222 10250 20244 53008
KFLL 211253Z 14014KT 10SM FEW022 25/22 A3011 RMK AO2 SLP195 T02500222



Page loaded:  13:26 UTC  |   05:26 AM Pacific  |   06:26 AM Mountain  |   07:26 AM Central  |   08:26 AM Eastern

 

ADVISORIES

FORECASTS

FORECASTS

OBSERVATIONS

USER TOOLS

ABOUT US